Time;durP1;ratioP1;P1;durP2;ratioP2;P2;SDS_P1;SDS_P2;PMS_P1;PMS_P2;Temp;Humidity;BMP_temperature;BMP_pressure;BME280_temperature;BME280_humidity;BME280_pressure;Samples;Min_cycle;Max_cycle;Signal;HPM_P1;HPM_P2
2022/08/01 00:01:54;;;;;;;4.00;3.07;;;;;;;22.01;58.60;157025.53;5106952;28;20498;-75
2022/08/01 00:04:21;;;;;;;3.50;3.20;;;;;;;22.05;61.67;157034.69;5106417;28;20445;-75
2022/08/01 00:06:49;;;;;;;3.10;2.80;;;;;;;22.00;57.88;157021.63;5073547;28;20430;-76
2022/08/01 00:09:15;;;;;;;3.23;2.93;;;;;;;21.98;57.69;157016.38;5103663;28;20468;-75
2022/08/01 00:11:42;;;;;;;4.43;3.10;;;;;;;22.00;58.49;157021.63;5074079;28;20537;-76
2022/08/01 00:14:10;;;;;;;3.90;3.50;;;;;;;22.04;57.23;157033.38;5106588;28;20469;-76
2022/08/01 00:16:37;;;;;;;3.97;3.67;;;;;;;21.89;60.65;156992.88;5070664;28;20740;-76
2022/08/01 00:19:04;;;;;;;3.50;3.20;;;;;;;21.90;57.68;156995.47;5080020;28;20445;-75
2022/08/01 00:21:31;;;;;;;4.93;3.33;;;;;;;21.89;60.25;156992.88;5069989;28;20555;-75
2022/08/01 00:24:00;;;;;;;3.33;3.03;;;;;;;21.88;59.18;156990.25;5106176;28;20446;-75
2022/08/01 00:26:27;;;;;;;3.70;3.40;;;;;;;21.86;61.40;156986.38;5104379;28;20649;-75
2022/08/01 00:28:53;;;;;;;3.47;3.10;;;;;;;21.80;59.26;156971.94;5073403;28;20470;-75
2022/08/01 00:31:20;;;;;;;3.70;3.30;;;;;;;21.81;62.96;156974.56;5105922;28;20541;-76
2022/08/01 00:33:47;;;;;;;3.37;3.10;;;;;;;21.81;59.13;156973.25;5074060;28;20783;-75
2022/08/01 00:36:13;;;;;;;3.37;3.07;;;;;;;21.78;59.69;156966.75;5071765;28;20613;-75
2022/08/01 00:38:40;;;;;;;3.53;3.23;;;;;;;21.75;58.86;156957.59;5072566;28;20862;-75
2022/08/01 00:41:08;;;;;;;3.80;3.47;;;;;;;21.73;59.84;156952.38;5072861;28;20478;-75
2022/08/01 00:43:35;;;;;;;3.30;3.00;;;;;;;21.68;59.92;156940.59;5105838;28;20444;-75
2022/08/01 00:46:02;;;;;;;5.57;5.17;;;;;;;21.62;61.23;156924.97;5103775;28;20453;-75
2022/08/01 00:48:28;;;;;;;3.80;3.40;;;;;;;21.60;60.86;156919.75;5086328;28;20435;-75
2022/08/01 00:50:55;;;;;;;3.80;3.50;;;;;;;21.54;61.42;156904.06;5052688;28;20493;-75
2022/08/01 00:53:22;;;;;;;3.43;3.13;;;;;;;21.55;61.87;156905.38;5070766;28;20434;-75
2022/08/01 00:55:49;;;;;;;4.00;3.53;;;;;;;21.52;60.57;156898.84;5104821;28;20500;-75
2022/08/01 00:58:17;;;;;;;3.93;3.53;;;;;;;21.52;62.19;156897.53;5072636;28;20430;-75
2022/08/01 01:00:44;;;;;;;4.10;3.70;;;;;;;21.50;61.51;156892.34;5072090;28;20489;-76
2022/08/01 01:03:10;;;;;;;3.70;3.40;;;;;;;21.45;62.95;156880.53;5069711;28;21042;-75
2022/08/01 01:05:47;;;;;;;4.10;3.70;;;;;;;21.36;62.30;156857.09;5105531;28;20797;-76
2022/08/01 01:08:18;;;;;;;3.37;3.07;;;;;;;21.36;61.51;156855.75;5104604;28;20454;-75
2022/08/01 01:10:49;;;;;;;5.33;3.30;;;;;;;21.35;63.55;156854.44;5071660;28;20461;-75
2022/08/01 01:13:23;;;;;;;3.50;3.20;;;;;;;21.35;63.03;156854.44;5103078;28;20505;-75
2022/08/01 01:15:53;;;;;;;3.70;3.40;;;;;;;21.36;62.59;156857.09;5071530;28;20449;-75
2022/08/01 01:18:24;;;;;;;4.03;3.63;;;;;;;21.25;62.70;156828.34;5072354;28;20452;-75
2022/08/01 01:20:54;;;;;;;3.70;3.30;;;;;;;21.28;67.02;156836.19;5066202;28;20482;-75
2022/08/01 01:23:35;;;;;;;3.90;3.60;;;;;;;21.27;64.57;156832.25;5072255;28;20799;-76
2022/08/01 01:26:22;;;;;;;3.83;3.50;;;;;;;21.27;62.57;156833.56;5073465;28;20484;-76
2022/08/01 01:28:58;;;;;;;3.97;3.57;;;;;;;21.16;67.50;156804.84;5087477;28;20460;-75
2022/08/01 01:31:26;;;;;;;4.17;3.70;;;;;;;21.15;65.41;156802.25;5064641;28;20461;-75
2022/08/01 01:33:54;;;;;;;3.63;3.23;;;;;;;21.15;65.77;156802.25;5104832;28;20447;-75
2022/08/01 01:36:22;;;;;;;3.93;3.60;;;;;;;21.10;65.11;156789.22;5072617;28;20789;-75
2022/08/01 01:38:49;;;;;;;3.90;3.50;;;;;;;21.09;65.01;156786.59;5071096;28;20525;-75
2022/08/01 01:41:18;;;;;;;3.60;3.30;;;;;;;21.08;64.66;156783.97;5071826;28;20465;-75
2022/08/01 01:43:46;;;;;;;4.33;3.93;;;;;;;21.13;65.18;156798.31;5072005;28;20533;-76
2022/08/01 01:46:18;;;;;;;3.70;3.40;;;;;;;21.10;67.16;156789.22;5072060;28;20446;-76
2022/08/01 01:48:46;;;;;;;4.30;3.90;;;;;;;21.03;66.00;156770.88;5071915;28;20902;-76
2022/08/01 01:51:14;;;;;;;3.50;3.20;;;;;;;21.01;67.89;156766.97;5070522;28;20449;-76
2022/08/01 01:53:41;;;;;;;3.33;3.03;;;;;;;21.00;65.79;156763.03;5070289;28;20890;-75
2022/08/01 01:56:10;;;;;;;3.53;3.23;;;;;;;21.01;65.38;156766.97;5052196;28;20558;-76
2022/08/01 01:58:38;;;;;;;4.13;3.73;;;;;;;20.92;68.14;156742.16;5071405;28;20469;-75
2022/08/01 02:01:05;;;;;;;3.70;3.00;;;;;;;20.88;66.28;156731.75;5070265;28;20465;-75
2022/08/01 02:03:36;;;;;;;4.53;3.47;;;;;;;20.87;67.06;156729.09;5070981;28;20516;-75
2022/08/01 02:06:03;;;;;;;4.20;3.50;;;;;;;20.85;66.79;156723.91;5103989;28;20495;-76
2022/08/01 02:08:30;;;;;;;4.80;3.93;;;;;;;20.83;66.01;156718.69;5100861;28;20542;-76
2022/08/01 02:13:43;;;;;;;3.80;3.37;;;;;;;20.81;67.01;156713.47;5071277;28;20465;-75
2022/08/01 02:16:11;;;;;;;3.73;3.33;;;;;;;20.78;65.81;156706.97;5070435;28;20938;-76
2022/08/01 02:18:39;;;;;;;4.30;3.90;;;;;;;20.77;66.09;156703.03;5086451;28;20504;-76
2022/08/01 02:21:09;;;;;;;4.10;3.57;;;;;;;20.71;65.76;156687.34;5071398;28;20819;-75
2022/08/01 02:23:37;;;;;;;3.83;3.43;;;;;;;20.65;67.56;156674.31;5103727;28;20539;-75
2022/08/01 02:26:09;;;;;;;3.97;3.57;;;;;;;20.64;66.32;156670.41;5069456;28;20537;-76
2022/08/01 02:28:37;;;;;;;3.83;3.53;;;;;;;20.61;68.97;156663.91;5069864;28;20442;-74
2022/08/01 02:31:09;;;;;;;4.23;3.90;;;;;;;20.57;68.73;156653.44;5070590;28;20442;-75
2022/08/01 02:33:39;;;;;;;4.07;3.63;;;;;;;20.55;68.38;156648.22;5070276;28;21179;-76
2022/08/01 02:36:07;;;;;;;3.30;3.00;;;;;;;20.57;69.54;156652.16;5102689;28;20458;-76
2022/08/01 02:38:37;;;;;;;3.80;3.50;;;;;;;20.58;67.71;156656.06;5071909;28;20434;-76
2022/08/01 02:41:09;;;;;;;4.70;4.30;;;;;;;20.58;68.68;156654.75;5071204;28;20466;-76
2022/08/01 02:43:39;;;;;;;4.13;3.73;;;;;;;20.60;68.36;156661.28;5103371;28;20445;-75
2022/08/01 02:46:07;;;;;;;3.57;3.27;;;;;;;20.56;69.34;156649.53;5067878;28;20485;-75
2022/08/01 02:48:36;;;;;;;4.37;3.50;;;;;;;20.55;69.78;156648.22;5103914;28;20414;-76
2022/08/01 02:51:04;;;;;;;3.63;3.33;;;;;;;20.53;69.00;156641.72;5103266;28;20437;-75
2022/08/01 02:53:36;;;;;;;4.13;3.73;;;;;;;20.50;70.50;156635.19;5068887;28;20434;-76
2022/08/01 02:56:04;;;;;;;4.37;3.50;;;;;;;20.47;69.20;156626.03;5103466;28;20545;-76
2022/08/01 02:58:32;;;;;;;3.80;3.50;;;;;;;20.49;69.47;156632.56;5069529;28;20484;-76
2022/08/01 03:00:59;;;;;;;4.20;3.43;;;;;;;20.45;71.59;156622.16;5070059;28;20948;-76
2022/08/01 03:03:26;;;;;;;4.17;3.77;;;;;;;20.42;71.11;156614.31;5102975;28;20544;-75
2022/08/01 03:05:53;;;;;;;4.10;3.70;;;;;;;20.42;70.63;156614.31;5102077;28;20991;-75
2022/08/01 03:08:22;;;;;;;5.90;4.53;;;;;;;20.34;70.29;156592.13;5104034;28;20782;-75
2022/08/01 03:10:49;;;;;;;3.70;3.37;;;;;;;20.32;70.52;156586.94;5070755;28;20445;-76
2022/08/01 03:13:16;;;;;;;4.30;3.70;;;;;;;20.30;71.16;156583.03;5102532;28;20482;-76
2022/08/01 03:15:44;;;;;;;3.50;3.20;;;;;;;20.26;71.25;156572.56;5103676;28;20455;-75
2022/08/01 03:18:12;;;;;;;4.40;3.60;;;;;;;20.21;72.58;156559.50;5103236;28;20452;-75
2022/08/01 03:20:39;;;;;;;4.10;3.30;;;;;;;20.15;71.31;156543.81;5069379;28;20449;-76
2022/08/01 03:23:08;;;;;;;4.00;3.60;;;;;;;20.17;71.59;156549.06;5068991;28;20415;-76
2022/08/01 03:25:39;;;;;;;3.90;3.30;;;;;;;20.13;73.56;156538.63;5070503;28;20458;-75
2022/08/01 03:28:08;;;;;;;3.80;3.50;;;;;;;20.11;70.81;156533.41;5103440;28;20441;-76
2022/08/01 03:30:36;;;;;;;3.67;3.37;;;;;;;20.13;71.95;156538.63;5070583;28;20450;-76
2022/08/01 03:33:03;;;;;;;5.47;3.50;;;;;;;20.10;72.97;156529.47;5101532;28;20537;-75
2022/08/01 03:35:38;;;;;;;3.77;3.47;;;;;;;20.05;73.24;156517.75;5069969;28;20434;-75
2022/08/01 03:38:06;;;;;;;3.80;3.43;;;;;;;20.04;72.82;156515.19;5103056;28;20434;-76
2022/08/01 03:40:38;;;;;;;3.97;3.40;;;;;;;20.02;73.49;156509.91;5068778;28;20440;-76
2022/08/01 03:43:07;;;;;;;3.40;3.07;;;;;;;20.00;72.85;156504.72;5103923;28;20536;-75
2022/08/01 03:45:37;;;;;;;3.80;3.50;;;;;;;19.99;73.88;156502.09;5073142;28;20450;-76
2022/08/01 03:48:07;;;;;;;3.40;3.00;;;;;;;20.00;73.92;156504.72;5073778;28;20449;-76
2022/08/01 03:50:35;;;;;;;4.03;3.37;;;;;;;19.96;72.84;156495.56;5106393;28;20489;-75
2022/08/01 03:53:03;;;;;;;4.30;3.90;;;;;;;19.99;72.98;156502.09;5055419;28;20976;-75
2022/08/01 03:55:31;;;;;;;3.53;3.23;;;;;;;20.00;73.03;156504.72;5072592;28;20445;-75
2022/08/01 03:58:00;;;;;;;3.90;3.50;;;;;;;19.97;74.07;156498.19;5071789;28;20437;-75
2022/08/01 04:00:27;;;;;;;3.67;2.83;;;;;;;19.96;73.29;156494.31;5073798;28;20552;-75
2022/08/01 04:02:54;;;;;;;3.70;3.27;;;;;;;19.95;76.35;156491.69;5073250;28;20968;-75
2022/08/01 04:05:21;;;;;;;3.60;3.23;;;;;;;19.97;74.38;156496.88;5073536;28;20434;-75
2022/08/01 04:07:54;;;;;;;3.60;3.30;;;;;;;20.03;74.57;156512.53;5106130;28;20464;-75
2022/08/01 04:10:21;;;;;;;3.53;3.23;;;;;;;20.03;74.60;156513.88;5105390;28;20446;-75
2022/08/01 04:12:48;;;;;;;3.97;3.57;;;;;;;20.00;74.83;156504.72;5106446;28;20448;-75
2022/08/01 04:15:16;;;;;;;4.60;3.30;;;;;;;19.93;75.83;156486.47;5104475;28;20813;-75
2022/08/01 04:17:43;;;;;;;3.80;3.50;;;;;;;19.90;78.04;156478.66;5105865;28;20438;-75
2022/08/01 04:20:11;;;;;;;3.63;3.27;;;;;;;19.91;77.43;156481.22;5105777;28;20450;-75
2022/08/01 04:22:38;;;;;;;3.03;2.70;;;;;;;19.95;75.67;156493.00;5071974;28;20969;-75
2022/08/01 04:25:10;;;;;;;3.50;3.20;;;;;;;19.99;75.23;156502.09;5071952;28;20480;-75
2022/08/01 04:27:38;;;;;;;3.43;3.13;;;;;;;20.03;74.53;156512.53;5106242;28;20449;-75
2022/08/01 04:30:07;;;;;;;3.40;2.97;;;;;;;20.03;75.13;156513.88;5106559;28;21054;-75
2022/08/01 04:32:39;;;;;;;2.97;2.77;;;;;;;20.05;75.64;156517.75;5107233;28;20430;-75
2022/08/01 04:35:09;;;;;;;3.43;3.10;;;;;;;20.11;74.70;156532.09;5073061;28;21164;-75
2022/08/01 04:37:36;;;;;;;3.30;2.80;;;;;;;20.15;75.53;156543.81;5073138;28;20506;-75
2022/08/01 04:40:05;;;;;;;2.73;2.53;;;;;;;20.14;76.45;156541.25;5072865;28;20845;-75
2022/08/01 04:42:31;;;;;;;3.43;2.73;;;;;;;20.21;76.22;156559.50;5105301;28;21065;-75
2022/08/01 04:44:58;;;;;;;2.90;2.70;;;;;;;20.25;75.05;156570.00;5103639;28;20489;-75
2022/08/01 04:47:26;;;;;;;5.33;2.63;;;;;;;20.31;75.05;156584.31;5105565;28;20438;-75
2022/08/01 04:49:56;;;;;;;3.00;2.70;;;;;;;20.31;76.95;156585.63;5105863;28;20861;-75
2022/08/01 04:52:23;;;;;;;4.70;3.60;;;;;;;20.26;77.82;156572.56;5050225;28;20959;-75
2022/08/01 04:54:49;;;;;;;3.13;2.67;;;;;;;20.34;76.18;156593.44;5084126;28;20534;-75
2022/08/01 04:57:16;;;;;;;3.10;2.80;;;;;;;20.42;78.80;156614.31;5051517;28;20442;-75
2022/08/01 04:59:46;;;;;;;3.47;2.80;;;;;;;20.63;75.81;156669.09;5059869;28;20857;-75
2022/08/01 05:02:14;;;;;;;3.47;2.40;;;;;;;21.00;74.96;156763.03;5072111;28;20485;-75
2022/08/01 05:04:42;;;;;;;3.20;2.90;;;;;;;21.41;73.57;156870.13;5071596;28;20533;-75
2022/08/01 05:07:11;;;;;;;3.70;2.63;;;;;;;21.62;73.04;156923.63;5088611;28;20499;-75
2022/08/01 05:09:38;;;;;;;3.40;2.43;;;;;;;21.63;71.94;156927.53;5072839;28;20442;-75
2022/08/01 05:12:06;;;;;;;2.77;2.50;;;;;;;21.58;72.13;156914.47;5071320;28;20562;-75
2022/08/01 05:14:33;;;;;;;3.30;2.90;;;;;;;21.54;71.98;156904.06;5065581;28;20478;-74
2022/08/01 05:17:02;;;;;;;3.30;2.80;;;;;;;21.48;72.20;156888.38;5092012;28;20503;-75
2022/08/01 05:19:31;;;;;;;3.53;2.67;;;;;;;21.42;73.03;156872.72;5085814;28;20840;-75
2022/08/01 05:21:58;;;;;;;4.80;2.70;;;;;;;21.60;72.42;156918.44;5104418;28;20830;-76
2022/08/01 05:24:28;;;;;;;3.33;2.33;;;;;;;22.00;73.09;157021.63;5104901;28;20773;-75
2022/08/01 05:26:55;;;;;;;2.60;2.20;;;;;;;22.44;71.62;157136.53;5071260;28;20450;-75
2022/08/01 05:29:21;;;;;;;3.30;3.00;;;;;;;22.84;69.08;157241.13;5069919;28;20454;-75
2022/08/01 05:31:48;;;;;;;3.80;2.43;;;;;;;23.23;67.74;157340.41;5072028;28;20474;-76
2022/08/01 05:34:15;;;;;;;3.00;2.70;;;;;;;23.56;66.33;157426.75;5071413;28;20518;-75
2022/08/01 05:36:42;;;;;;;2.93;2.17;;;;;;;23.78;65.39;157484.22;5070996;28;20503;-75
2022/08/01 05:39:09;;;;;;;2.80;2.57;;;;;;;23.95;64.56;157528.69;5102657;28;20450;-75
2022/08/01 05:41:37;;;;;;;2.40;2.20;;;;;;;24.15;63.92;157579.72;5104580;28;20834;-75
2022/08/01 05:44:04;;;;;;;3.40;2.53;;;;;;;24.14;64.16;157578.47;5071220;28;20444;-76
2022/08/01 05:46:32;;;;;;;2.47;2.27;;;;;;;24.25;63.41;157604.59;5070890;28;20442;-75
2022/08/01 05:48:58;;;;;;;2.03;1.83;;;;;;;24.32;63.38;157622.88;5070825;28;20438;-76
2022/08/01 05:51:25;;;;;;;2.90;2.10;;;;;;;24.36;63.26;157634.66;5069837;28;20557;-76
2022/08/01 05:53:52;;;;;;;2.47;2.27;;;;;;;24.37;62.55;157635.97;5104071;28;20438;-76
2022/08/01 05:56:19;;;;;;;2.50;2.20;;;;;;;24.26;64.47;157607.19;5071905;28;20434;-75
2022/08/01 05:58:48;;;;;;;2.60;2.20;;;;;;;24.41;63.90;157646.47;5066856;28;20446;-76
2022/08/01 06:01:14;;;;;;;2.60;2.37;;;;;;;24.70;63.31;157723.59;5067672;28;20462;-76
2022/08/01 06:03:41;;;;;;;4.07;1.90;;;;;;;25.07;62.01;157819.16;5069869;28;20574;-74
2022/08/01 06:06:08;;;;;;;2.93;1.90;;;;;;;25.34;60.89;157888.50;5069295;28;20442;-74
2022/08/01 06:08:35;;;;;;;3.03;2.20;;;;;;;25.57;59.46;157947.47;5071265;28;21115;-75
2022/08/01 06:11:01;;;;;;;3.60;2.30;;;;;;;25.87;58.81;158026.00;5070833;28;21047;-75
2022/08/01 06:13:28;;;;;;;2.97;1.77;;;;;;;26.11;58.31;158088.84;5104872;28;20567;-74
2022/08/01 06:15:57;;;;;;;2.20;2.00;;;;;;;26.31;56.71;158141.31;5104313;28;20978;-74
2022/08/01 06:18:24;;;;;;;5.10;2.10;;;;;;;26.44;56.75;158175.34;5070071;28;20442;-75
2022/08/01 06:20:51;;;;;;;2.40;2.00;;;;;;;26.52;56.29;158196.31;5069644;28;20484;-75
2022/08/01 06:23:17;;;;;;;1.93;1.70;;;;;;;26.69;55.30;158238.22;5071123;28;20501;-75
2022/08/01 06:25:44;;;;;;;2.30;2.10;;;;;;;26.84;55.23;158277.56;5069407;28;20468;-75
2022/08/01 06:28:11;;;;;;;1.93;1.73;;;;;;;26.99;55.12;158316.84;5103806;28;20453;-75
2022/08/01 06:30:37;;;;;;;2.17;1.60;;;;;;;27.19;54.64;158370.56;5066565;28;20549;-75
2022/08/01 06:33:05;;;;;;;2.80;2.00;;;;;;;27.45;54.50;158436.16;5104231;28;20436;-75
2022/08/01 06:35:32;;;;;;;2.30;2.00;;;;;;;27.30;53.66;158398.06;5103655;28;20507;-75
2022/08/01 06:37:59;;;;;;;2.40;1.70;;;;;;;27.54;52.90;158461.03;5071533;28;20511;-75
2022/08/01 06:40:26;;;;;;;1.90;1.70;;;;;;;27.78;52.80;158523.94;5069737;28;20451;-75
2022/08/01 06:42:52;;;;;;;1.80;1.50;;;;;;;27.95;52.69;158565.91;5103096;28;20478;-75
2022/08/01 06:45:22;;;;;;;1.60;1.50;;;;;;;28.08;52.54;158600.03;5069905;28;20773;-75
2022/08/01 06:47:49;;;;;;;1.80;1.67;;;;;;;28.19;51.90;158630.19;5069745;28;20857;-75
2022/08/01 06:50:17;;;;;;;2.97;2.43;;;;;;;28.37;51.64;158676.06;5069754;28;20493;-75
2022/08/01 06:52:43;;;;;;;2.93;1.80;;;;;;;28.55;52.23;158721.94;5070958;28;20536;-75
2022/08/01 06:55:10;;;;;;;1.90;1.70;;;;;;;28.62;50.60;158741.66;5071391;28;21156;-75
2022/08/01 06:57:37;;;;;;;3.20;1.90;;;;;;;28.73;50.05;158770.53;5103385;28;20479;-75
2022/08/01 07:00:06;;;;;;;1.60;1.30;;;;;;;28.87;49.96;158807.25;5071172;28;20499;-75
2022/08/01 07:02:34;;;;;;;1.73;1.63;;;;;;;29.03;50.08;158846.59;5069057;28;20462;-75
2022/08/01 07:05:00;;;;;;;2.60;1.77;;;;;;;29.17;49.17;158883.34;5068920;28;20583;-75
2022/08/01 07:07:28;;;;;;;1.63;1.53;;;;;;;29.08;49.83;158859.72;5070813;28;20765;-75
2022/08/01 07:09:55;;;;;;;1.90;1.70;;;;;;;29.38;48.58;158939.81;5066769;28;20716;-75
2022/08/01 07:12:22;;;;;;;2.23;1.90;;;;;;;29.51;48.52;158972.59;5103523;28;20484;-75
2022/08/01 07:14:49;;;;;;;1.90;1.57;;;;;;;29.59;48.51;158993.59;5103250;28;20462;-75
2022/08/01 07:17:15;;;;;;;2.40;1.90;;;;;;;29.71;47.56;159025.09;5071663;28;20450;-75
2022/08/01 07:19:42;;;;;;;2.17;1.83;;;;;;;29.40;47.50;158943.75;5072485;28;20850;-75
2022/08/01 07:22:09;;;;;;;1.70;1.60;;;;;;;29.16;47.95;158882.03;5102917;28;20465;-75
2022/08/01 07:24:37;;;;;;;2.57;1.90;;;;;;;29.26;49.20;158906.97;5068151;28;20450;-75
2022/08/01 07:27:04;;;;;;;4.53;2.10;;;;;;;29.43;47.83;158951.63;5073676;28;20553;-75
2022/08/01 07:29:30;;;;;;;2.50;2.30;;;;;;;29.63;47.36;159004.09;5072870;28;20841;-75
2022/08/01 07:31:58;;;;;;;2.23;2.03;;;;;;;29.44;48.11;158954.25;5103659;28;20768;-76
2022/08/01 07:34:26;;;;;;;3.20;2.30;;;;;;;29.20;47.18;158891.22;5073483;28;20920;-75
2022/08/01 07:36:53;;;;;;;2.47;2.13;;;;;;;29.07;49.36;158858.38;5072149;28;20457;-75
2022/08/01 07:39:19;;;;;;;2.43;1.70;;;;;;;28.68;48.50;158756.09;5074177;28;20422;-76
2022/08/01 07:41:48;;;;;;;1.90;1.70;;;;;;;28.54;50.15;158720.63;5073528;28;21023;-75
2022/08/01 07:44:15;;;;;;;2.20;2.00;;;;;;;28.21;51.35;158635.44;5104085;28;20472;-75
2022/08/01 07:46:41;;;;;;;2.27;2.07;;;;;;;27.89;50.43;158550.16;5070213;28;20466;-75
2022/08/01 07:49:08;;;;;;;2.10;1.87;;;;;;;28.20;50.89;158631.47;5070174;28;20537;-75
2022/08/01 07:51:35;;;;;;;2.43;1.90;;;;;;;28.45;51.18;158697.06;5074242;28;20456;-75
2022/08/01 07:54:02;;;;;;;2.20;2.00;;;;;;;28.64;50.32;158746.94;5107360;28;20426;-75
2022/08/01 07:56:29;;;;;;;2.03;1.87;;;;;;;28.62;51.15;158741.66;5105646;28;20450;-75
2022/08/01 07:58:57;;;;;;;3.40;2.43;;;;;;;28.57;50.30;158728.50;5073158;28;20434;-75
2022/08/01 08:01:23;;;;;;;2.53;2.27;;;;;;;28.15;52.74;158618.38;5064725;28;20485;-75
2022/08/01 08:03:50;;;;;;;2.43;2.20;;;;;;;27.76;54.95;158517.41;5073889;28;20470;-75
2022/08/01 08:06:17;;;;;;;3.30;2.30;;;;;;;27.88;51.35;158547.56;5063774;28;20458;-75
2022/08/01 08:08:44;;;;;;;2.30;2.10;;;;;;;28.25;51.51;158645.91;5104733;28;20832;-75
2022/08/01 08:11:10;;;;;;;3.03;2.73;;;;;;;28.79;49.99;158784.94;5070112;28;20853;-75
2022/08/01 08:13:37;;;;;;;2.80;2.33;;;;;;;28.63;49.36;158742.97;5071471;28;20481;-75
2022/08/01 08:16:06;;;;;;;3.07;2.77;;;;;;;28.84;50.31;158799.38;5081092;28;20452;-75
2022/08/01 08:18:33;;;;;;;3.70;2.57;;;;;;;28.83;50.15;158795.47;5061898;28;20447;-83
2022/08/01 08:21:00;;;;;;;3.40;3.10;;;;;;;29.09;51.14;158863.69;5105230;28;20494;-85
2022/08/01 08:26:11;;;;;;;3.90;3.10;;;;;;;29.32;47.22;158924.06;5072013;28;20519;-82
2022/08/01 08:28:38;;;;;;;5.30;2.87;;;;;;;29.16;47.63;158880.69;5103928;28;20437;-83
2022/08/01 08:31:06;;;;;;;5.20;2.60;;;;;;;28.95;49.83;158828.25;5072672;28;20571;-82
2022/08/01 08:33:32;;;;;;;2.77;2.57;;;;;;;29.05;50.37;158853.16;5067172;28;20476;-83
2022/08/01 08:35:59;;;;;;;3.10;2.73;;;;;;;29.02;49.65;158845.28;5071476;28;20516;-82
2022/08/01 08:38:27;;;;;;;2.93;2.73;;;;;;;29.12;49.44;158870.22;5073489;28;20470;-82
2022/08/01 08:40:53;;;;;;;3.40;3.10;;;;;;;29.20;49.26;158891.22;5103312;28;20465;-82
2022/08/01 08:43:21;;;;;;;3.10;2.80;;;;;;;29.42;47.91;158948.97;5069080;28;20484;-82
2022/08/01 08:45:48;;;;;;;2.93;2.63;;;;;;;29.47;47.09;158962.09;5105790;28;20446;-82
2022/08/01 08:48:16;;;;;;;4.17;3.00;;;;;;;29.04;48.08;158849.25;5061808;28;20453;-82
2022/08/01 08:50:44;;;;;;;4.33;3.00;;;;;;;28.95;47.98;158826.94;5064207;28;20450;-82
2022/08/01 08:53:14;;;;;;;3.43;2.93;;;;;;;28.58;50.55;158731.16;5053820;28;20959;-83
2022/08/01 08:55:42;;;;;;;3.70;2.90;;;;;;;28.21;49.56;158635.44;5072302;28;20465;-83
2022/08/01 08:58:10;;;;;;;3.30;3.00;;;;;;;27.90;49.79;158552.78;5070686;28;20469;-82
2022/08/01 09:00:37;;;;;;;3.50;3.20;;;;;;;27.28;51.07;158391.50;5068387;28;21043;-80
2022/08/01 09:03:04;;;;;;;6.30;2.87;;;;;;;27.24;51.82;158382.38;5083127;28;20469;-84
2022/08/01 10:01:48;;;;;;;8.40;7.70;;;;;;;27.04;54.69;158331.25;5064149;27;20568;-76
2022/08/01 10:04:16;;;;;;;8.00;7.30;;;;;;;27.05;54.41;158332.56;5064075;28;20557;-74
2022/08/01 10:06:44;;;;;;;7.33;6.60;;;;;;;26.95;54.65;158306.38;5069335;28;21110;-74
2022/08/01 10:09:12;;;;;;;8.50;7.80;;;;;;;27.01;59.63;158322.06;5061767;28;20473;-76
2022/08/01 10:11:39;;;;;;;7.90;7.30;;;;;;;27.07;58.09;158339.13;5061201;28;20435;-76
2022/08/01 10:14:07;;;;;;;7.60;6.90;;;;;;;27.01;52.46;158322.06;5061913;28;20440;-76
2022/08/01 10:16:34;;;;;;;7.07;6.47;;;;;;;27.06;54.46;158335.16;5050358;28;20450;-76
2022/08/01 10:19:03;;;;;;;7.07;6.27;;;;;;;26.63;54.03;158222.50;5054389;28;20458;-76
2022/08/01 10:21:33;;;;;;;6.87;6.27;;;;;;;26.55;57.23;158202.84;5046507;28;21036;-74
2022/08/01 10:24:02;;;;;;;6.30;5.80;;;;;;;26.67;55.36;158232.94;5057875;28;20442;-74
2022/08/01 10:26:30;;;;;;;7.03;6.43;;;;;;;26.97;58.26;158311.63;5057679;28;20482;-74
2022/08/01 10:28:57;;;;;;;6.40;5.90;;;;;;;27.10;53.87;158345.69;5063478;28;20446;-74
2022/08/01 10:31:24;;;;;;;7.10;6.50;;;;;;;26.88;59.10;158288.00;5059339;28;20562;-74
2022/08/01 10:33:51;;;;;;;7.47;6.73;;;;;;;27.03;58.13;158327.34;5047323;28;20438;-74
2022/08/01 10:36:21;;;;;;;7.40;6.80;;;;;;;27.12;57.48;158350.91;5061636;28;20533;-74
2022/08/01 10:38:48;;;;;;;6.73;6.23;;;;;;;27.19;60.34;158370.56;5055638;28;20945;-76
2022/08/01 10:41:16;;;;;;;6.43;5.93;;;;;;;27.30;54.43;158396.78;5048998;28;20496;-74
2022/08/01 10:43:46;;;;;;;7.10;6.47;;;;;;;27.47;54.01;158441.38;5062220;28;20458;-74
2022/08/01 10:46:14;;;;;;;6.33;5.67;;;;;;;27.56;57.41;158465.00;5062827;28;20455;-74
2022/08/01 10:48:46;;;;;;;6.50;5.90;;;;;;;27.46;53.21;158440.06;5060107;28;20957;-74
2022/08/01 10:51:15;;;;;;;6.67;6.17;;;;;;;27.61;52.58;158478.09;5077146;28;20492;-74
2022/08/01 10:53:48;;;;;;;5.10;4.70;;;;;;;27.50;51.79;158450.56;5067433;28;20939;-74
2022/08/01 10:56:16;;;;;;;4.90;4.50;;;;;;;27.15;51.46;158360.09;5065024;28;20464;-74
2022/08/01 10:58:45;;;;;;;5.27;4.80;;;;;;;27.04;52.97;158329.94;5060628;28;20461;-74
2022/08/01 11:01:26;;;;;;;5.00;4.60;;;;;;;26.91;57.26;158295.88;5062209;28;20529;-74
2022/08/01 11:04:03;;;;;;;4.50;4.10;;;;;;;26.73;54.81;158248.69;5061849;28;20423;-74
2022/08/01 11:06:41;;;;;;;4.73;4.43;;;;;;;26.52;54.80;158195.00;5045437;28;20447;-74
2022/08/01 11:09:23;;;;;;;4.70;4.30;;;;;;;26.40;53.91;158163.53;5067552;28;20466;-74
2022/08/01 11:12:04;;;;;;;5.50;4.90;;;;;;;26.18;54.13;158107.25;5060070;28;20462;-74
2022/08/01 11:14:31;;;;;;;5.30;4.80;;;;;;;26.23;56.63;158120.34;5057485;28;20806;-74
2022/08/01 11:17:31;;;;;;;4.73;4.37;;;;;;;26.44;56.38;158175.34;5031773;28;20467;-74
2022/08/01 11:20:09;;;;;;;5.10;4.70;;;;;;;26.50;55.60;158191.03;5067207;28;20447;-74
2022/08/01 11:23:25;;;;;;;5.07;4.67;;;;;;;26.47;53.62;158181.91;5031976;28;20466;-74
2022/08/01 11:26:13;;;;;;;5.37;4.87;;;;;;;26.67;53.05;158232.94;5049848;28;20447;-77
2022/08/01 11:28:41;;;;;;;5.57;5.10;;;;;;;26.61;56.20;158219.84;5048468;28;20454;-75
2022/08/01 11:31:30;;;;;;;5.90;5.40;;;;;;;26.70;54.46;158240.81;5034181;28;20479;-75
2022/08/01 11:33:57;;;;;;;5.60;5.10;;;;;;;26.75;53.30;158253.91;5042161;28;21003;-75
2022/08/01 11:36:23;;;;;;;5.50;5.00;;;;;;;26.84;52.54;158278.88;5038162;28;20443;-74
2022/08/01 11:39:19;;;;;;;5.40;5.00;;;;;;;26.85;52.08;158281.47;5032900;28;20439;-74
2022/08/01 11:41:49;;;;;;;5.20;4.80;;;;;;;26.76;54.50;158257.88;5031086;28;20493;-75
2022/08/01 11:44:25;;;;;;;5.10;4.60;;;;;;;26.73;55.55;158250.00;5046882;28;20974;-75
2022/08/01 11:47:01;;;;;;;5.30;4.90;;;;;;;26.74;52.98;158251.31;5038196;28;20437;-75
2022/08/01 11:49:45;;;;;;;4.70;4.30;;;;;;;26.65;52.94;158227.72;5033567;28;20443;-75
2022/08/01 11:52:13;;;;;;;5.20;4.60;;;;;;;26.64;53.87;158226.41;5048370;28;20443;-75
2022/08/01 11:54:42;;;;;;;4.20;3.80;;;;;;;26.67;53.31;158234.25;5064470;28;20458;-75
2022/08/01 11:57:11;;;;;;;4.67;4.27;;;;;;;26.60;54.11;158217.25;5044445;28;20444;-75
2022/08/01 11:59:39;;;;;;;4.50;4.10;;;;;;;26.69;53.12;158238.22;5047679;28;20471;-75
2022/08/01 12:02:16;;;;;;;5.20;4.70;;;;;;;26.78;54.46;158261.81;5031771;28;20435;-75
2022/08/01 12:04:52;;;;;;;4.70;4.13;;;;;;;26.79;53.30;158264.47;5030947;28;20533;-75
2022/08/01 12:07:20;;;;;;;4.47;4.07;;;;;;;26.83;54.14;158276.25;5032263;28;20522;-75
2022/08/01 12:09:47;;;;;;;4.77;4.30;;;;;;;26.96;54.50;158310.28;5046867;28;20431;-75
2022/08/01 12:12:18;;;;;;;4.47;4.17;;;;;;;27.06;54.11;158336.50;5036144;28;20463;-75
2022/08/01 12:14:46;;;;;;;4.33;4.03;;;;;;;27.11;53.20;158349.59;5055090;28;20466;-75
2022/08/01 12:17:12;;;;;;;5.27;4.77;;;;;;;27.09;51.83;158343.03;5048074;28;20479;-75
2022/08/01 12:19:40;;;;;;;4.20;3.90;;;;;;;27.06;51.54;158336.50;5047566;28;20443;-75
2022/08/01 12:22:09;;;;;;;5.53;3.73;;;;;;;27.13;50.66;158353.53;5036754;28;20432;-75
2022/08/01 12:24:36;;;;;;;3.90;3.60;;;;;;;27.06;50.99;158335.16;5045685;28;20544;-75
2022/08/01 12:27:03;;;;;;;4.43;4.03;;;;;;;27.06;50.48;158335.16;5051355;28;20492;-75
2022/08/01 12:29:39;;;;;;;3.97;3.67;;;;;;;27.14;50.96;158356.13;5051262;28;20443;-75
2022/08/01 12:32:23;;;;;;;4.50;4.10;;;;;;;27.20;51.28;158371.88;5043562;28;20502;-75
2022/08/01 12:34:50;;;;;;;4.50;4.10;;;;;;;27.15;52.54;158360.09;5038939;28;20490;-75